sensor_id;sensor_type;location;lat;lon;timestamp;P1;durP1;ratioP1;P2;durP2;ratioP2
5040;SDS011;2539;52.568;13.364;2022-07-29T00:00:17;6.27;;;3.67;;
5040;SDS011;2539;52.568;13.364;2022-07-29T00:02:44;4.80;;;3.50;;
5040;SDS011;2539;52.568;13.364;2022-07-29T00:05:11;5.07;;;3.27;;
5040;SDS011;2539;52.568;13.364;2022-07-29T00:07:38;6.70;;;3.70;;
5040;SDS011;2539;52.568;13.364;2022-07-29T00:10:05;5.50;;;3.70;;
5040;SDS011;2539;52.568;13.364;2022-07-29T00:12:31;6.65;;;3.60;;
5040;SDS011;2539;52.568;13.364;2022-07-29T00:14:57;7.20;;;4.10;;
5040;SDS011;2539;52.568;13.364;2022-07-29T00:17:23;8.63;;;3.60;;
5040;SDS011;2539;52.568;13.364;2022-07-29T00:19:50;4.70;;;3.70;;
5040;SDS011;2539;52.568;13.364;2022-07-29T00:22:16;7.13;;;4.13;;
5040;SDS011;2539;52.568;13.364;2022-07-29T00:24:43;7.57;;;3.83;;
5040;SDS011;2539;52.568;13.364;2022-07-29T00:27:09;6.07;;;3.60;;
5040;SDS011;2539;52.568;13.364;2022-07-29T00:29:35;6.90;;;4.07;;
5040;SDS011;2539;52.568;13.364;2022-07-29T00:32:01;5.57;;;3.90;;
5040;SDS011;2539;52.568;13.364;2022-07-29T00:34:27;6.10;;;3.93;;
5040;SDS011;2539;52.568;13.364;2022-07-29T00:37:12;5.67;;;4.07;;
5040;SDS011;2539;52.568;13.364;2022-07-29T00:39:38;7.27;;;4.10;;
5040;SDS011;2539;52.568;13.364;2022-07-29T00:42:04;7.43;;;3.93;;
5040;SDS011;2539;52.568;13.364;2022-07-29T00:44:32;5.67;;;4.00;;
5040;SDS011;2539;52.568;13.364;2022-07-29T00:47:02;6.90;;;4.20;;
5040;SDS011;2539;52.568;13.364;2022-07-29T00:49:28;5.30;;;3.20;;
5040;SDS011;2539;52.568;13.364;2022-07-29T00:51:54;6.40;;;4.23;;
5040;SDS011;2539;52.568;13.364;2022-07-29T00:54:21;6.57;;;3.70;;
5040;SDS011;2539;52.568;13.364;2022-07-29T00:56:46;7.77;;;3.97;;
5040;SDS011;2539;52.568;13.364;2022-07-29T00:59:12;7.80;;;4.03;;
5040;SDS011;2539;52.568;13.364;2022-07-29T01:01:37;5.83;;;3.50;;
5040;SDS011;2539;52.568;13.364;2022-07-29T01:04:03;5.40;;;4.10;;
5040;SDS011;2539;52.568;13.364;2022-07-29T01:06:32;7.87;;;4.20;;
5040;SDS011;2539;52.568;13.364;2022-07-29T01:08:59;13.47;;;4.40;;
5040;SDS011;2539;52.568;13.364;2022-07-29T01:11:25;6.53;;;4.60;;
5040;SDS011;2539;52.568;13.364;2022-07-29T01:13:52;7.37;;;4.20;;
5040;SDS011;2539;52.568;13.364;2022-07-29T01:16:25;6.00;;;4.53;;
5040;SDS011;2539;52.568;13.364;2022-07-29T01:19:01;10.00;;;3.97;;
5040;SDS011;2539;52.568;13.364;2022-07-29T01:24:39;6.00;;;4.30;;
5040;SDS011;2539;52.568;13.364;2022-07-29T01:27:31;4.60;;;4.00;;
5040;SDS011;2539;52.568;13.364;2022-07-29T01:30:07;6.70;;;4.60;;
5040;SDS011;2539;52.568;13.364;2022-07-29T01:32:35;7.23;;;4.50;;
5040;SDS011;2539;52.568;13.364;2022-07-29T01:35:16;7.90;;;4.10;;
5040;SDS011;2539;52.568;13.364;2022-07-29T01:43:11;4.80;;;3.87;;
5040;SDS011;2539;52.568;13.364;2022-07-29T01:45:53;4.50;;;3.87;;
5040;SDS011;2539;52.568;13.364;2022-07-29T01:48:37;6.13;;;4.10;;
5040;SDS011;2539;52.568;13.364;2022-07-29T01:54:16;4.43;;;3.60;;
5040;SDS011;2539;52.568;13.364;2022-07-29T01:56:48;7.40;;;4.30;;
5040;SDS011;2539;52.568;13.364;2022-07-29T01:59:17;5.57;;;3.90;;
5040;SDS011;2539;52.568;13.364;2022-07-29T02:01:44;8.20;;;3.87;;
5040;SDS011;2539;52.568;13.364;2022-07-29T02:04:12;4.80;;;4.10;;
5040;SDS011;2539;52.568;13.364;2022-07-29T02:06:40;7.23;;;3.83;;
5040;SDS011;2539;52.568;13.364;2022-07-29T02:09:08;7.73;;;4.27;;
5040;SDS011;2539;52.568;13.364;2022-07-29T02:11:37;7.90;;;4.20;;
5040;SDS011;2539;52.568;13.364;2022-07-29T02:14:04;5.53;;;3.60;;
5040;SDS011;2539;52.568;13.364;2022-07-29T02:16:32;5.53;;;3.60;;
5040;SDS011;2539;52.568;13.364;2022-07-29T02:19:00;6.20;;;3.67;;
5040;SDS011;2539;52.568;13.364;2022-07-29T02:21:28;7.00;;;3.60;;
5040;SDS011;2539;52.568;13.364;2022-07-29T02:23:58;4.80;;;3.97;;
5040;SDS011;2539;52.568;13.364;2022-07-29T02:26:26;6.20;;;3.70;;
5040;SDS011;2539;52.568;13.364;2022-07-29T02:28:55;5.30;;;4.07;;
5040;SDS011;2539;52.568;13.364;2022-07-29T02:31:24;6.00;;;3.93;;
5040;SDS011;2539;52.568;13.364;2022-07-29T02:33:52;7.17;;;3.73;;
5040;SDS011;2539;52.568;13.364;2022-07-29T02:36:20;9.60;;;4.07;;
5040;SDS011;2539;52.568;13.364;2022-07-29T02:38:49;5.45;;;3.80;;
5040;SDS011;2539;52.568;13.364;2022-07-29T02:41:40;8.43;;;4.03;;
5040;SDS011;2539;52.568;13.364;2022-07-29T02:44:22;6.67;;;3.70;;
5040;SDS011;2539;52.568;13.364;2022-07-29T02:46:52;5.83;;;3.90;;
5040;SDS011;2539;52.568;13.364;2022-07-29T02:49:32;5.77;;;3.90;;
5040;SDS011;2539;52.568;13.364;2022-07-29T02:52:08;7.53;;;3.83;;
5040;SDS011;2539;52.568;13.364;2022-07-29T02:54:55;6.27;;;3.90;;
5040;SDS011;2539;52.568;13.364;2022-07-29T02:57:31;8.47;;;3.90;;
5040;SDS011;2539;52.568;13.364;2022-07-29T03:00:02;3.87;;;3.10;;
5040;SDS011;2539;52.568;13.364;2022-07-29T03:02:33;12.10;;;3.97;;
5040;SDS011;2539;52.568;13.364;2022-07-29T03:05:02;6.03;;;3.60;;
5040;SDS011;2539;52.568;13.364;2022-07-29T03:07:31;6.00;;;3.90;;
5040;SDS011;2539;52.568;13.364;2022-07-29T03:09:58;6.07;;;3.60;;
5040;SDS011;2539;52.568;13.364;2022-07-29T03:12:25;7.17;;;3.47;;
5040;SDS011;2539;52.568;13.364;2022-07-29T03:14:52;6.20;;;3.30;;
5040;SDS011;2539;52.568;13.364;2022-07-29T03:17:19;7.97;;;3.57;;
5040;SDS011;2539;52.568;13.364;2022-07-29T03:19:46;6.80;;;3.73;;
5040;SDS011;2539;52.568;13.364;2022-07-29T03:22:13;5.37;;;3.57;;
5040;SDS011;2539;52.568;13.364;2022-07-29T03:24:39;6.13;;;3.83;;
5040;SDS011;2539;52.568;13.364;2022-07-29T03:27:06;7.97;;;3.73;;
5040;SDS011;2539;52.568;13.364;2022-07-29T03:29:32;6.50;;;3.40;;
5040;SDS011;2539;52.568;13.364;2022-07-29T03:31:58;4.87;;;3.37;;
5040;SDS011;2539;52.568;13.364;2022-07-29T03:34:25;7.33;;;3.77;;
5040;SDS011;2539;52.568;13.364;2022-07-29T03:36:51;5.77;;;3.67;;
5040;SDS011;2539;52.568;13.364;2022-07-29T03:39:21;4.87;;;4.03;;
5040;SDS011;2539;52.568;13.364;2022-07-29T03:41:52;6.03;;;3.30;;
5040;SDS011;2539;52.568;13.364;2022-07-29T03:44:21;5.57;;;3.73;;
5040;SDS011;2539;52.568;13.364;2022-07-29T03:46:50;5.80;;;3.70;;
5040;SDS011;2539;52.568;13.364;2022-07-29T03:49:19;4.40;;;3.30;;
5040;SDS011;2539;52.568;13.364;2022-07-29T03:51:47;8.47;;;4.03;;
5040;SDS011;2539;52.568;13.364;2022-07-29T03:54:13;6.17;;;3.33;;
5040;SDS011;2539;52.568;13.364;2022-07-29T03:56:40;5.53;;;3.80;;
5040;SDS011;2539;52.568;13.364;2022-07-29T03:59:12;6.50;;;3.47;;
5040;SDS011;2539;52.568;13.364;2022-07-29T04:01:40;5.53;;;4.00;;
5040;SDS011;2539;52.568;13.364;2022-07-29T04:04:08;4.80;;;3.67;;
5040;SDS011;2539;52.568;13.364;2022-07-29T04:06:38;11.97;;;4.00;;
5040;SDS011;2539;52.568;13.364;2022-07-29T04:09:08;5.63;;;3.73;;
5040;SDS011;2539;52.568;13.364;2022-07-29T04:11:35;6.30;;;3.33;;
5040;SDS011;2539;52.568;13.364;2022-07-29T04:14:03;5.00;;;3.17;;
5040;SDS011;2539;52.568;13.364;2022-07-29T04:16:30;5.20;;;3.50;;
5040;SDS011;2539;52.568;13.364;2022-07-29T04:18:56;13.80;;;3.57;;
5040;SDS011;2539;52.568;13.364;2022-07-29T04:21:22;7.10;;;3.40;;
5040;SDS011;2539;52.568;13.364;2022-07-29T04:23:48;10.73;;;4.10;;
5040;SDS011;2539;52.568;13.364;2022-07-29T04:26:19;4.97;;;3.50;;
5040;SDS011;2539;52.568;13.364;2022-07-29T04:28:46;7.27;;;4.13;;
5040;SDS011;2539;52.568;13.364;2022-07-29T04:31:12;8.50;;;3.43;;
5040;SDS011;2539;52.568;13.364;2022-07-29T04:33:39;11.27;;;3.93;;
5040;SDS011;2539;52.568;13.364;2022-07-29T04:36:05;8.20;;;3.80;;
5040;SDS011;2539;52.568;13.364;2022-07-29T04:38:31;5.50;;;3.43;;
5040;SDS011;2539;52.568;13.364;2022-07-29T04:40:57;8.10;;;3.90;;
5040;SDS011;2539;52.568;13.364;2022-07-29T04:43:24;5.00;;;3.00;;
5040;SDS011;2539;52.568;13.364;2022-07-29T04:45:50;7.33;;;3.10;;
5040;SDS011;2539;52.568;13.364;2022-07-29T04:48:16;5.47;;;3.50;;
5040;SDS011;2539;52.568;13.364;2022-07-29T04:50:42;4.40;;;2.80;;
5040;SDS011;2539;52.568;13.364;2022-07-29T04:53:09;8.70;;;3.70;;
5040;SDS011;2539;52.568;13.364;2022-07-29T04:55:36;8.03;;;3.70;;
5040;SDS011;2539;52.568;13.364;2022-07-29T04:58:02;14.77;;;3.50;;
5040;SDS011;2539;52.568;13.364;2022-07-29T05:00:28;6.53;;;3.30;;
5040;SDS011;2539;52.568;13.364;2022-07-29T05:02:54;8.53;;;3.77;;
5040;SDS011;2539;52.568;13.364;2022-07-29T05:05:21;6.47;;;2.93;;
5040;SDS011;2539;52.568;13.364;2022-07-29T05:07:47;11.90;;;3.70;;
5040;SDS011;2539;52.568;13.364;2022-07-29T05:10:13;5.90;;;3.67;;
5040;SDS011;2539;52.568;13.364;2022-07-29T05:12:39;7.50;;;3.10;;
5040;SDS011;2539;52.568;13.364;2022-07-29T05:15:06;5.60;;;3.10;;
5040;SDS011;2539;52.568;13.364;2022-07-29T05:17:32;6.23;;;2.60;;
5040;SDS011;2539;52.568;13.364;2022-07-29T05:19:59;4.87;;;3.07;;
5040;SDS011;2539;52.568;13.364;2022-07-29T05:22:25;4.00;;;3.00;;
5040;SDS011;2539;52.568;13.364;2022-07-29T05:24:51;5.17;;;2.90;;
5040;SDS011;2539;52.568;13.364;2022-07-29T05:27:17;5.80;;;3.30;;
5040;SDS011;2539;52.568;13.364;2022-07-29T05:29:44;5.27;;;2.70;;
5040;SDS011;2539;52.568;13.364;2022-07-29T05:32:10;5.37;;;3.00;;
5040;SDS011;2539;52.568;13.364;2022-07-29T05:34:35;19.70;;;3.43;;
5040;SDS011;2539;52.568;13.364;2022-07-29T05:37:01;7.80;;;3.77;;
5040;SDS011;2539;52.568;13.364;2022-07-29T05:39:27;6.20;;;3.30;;
5040;SDS011;2539;52.568;13.364;2022-07-29T05:41:52;9.27;;;2.73;;
5040;SDS011;2539;52.568;13.364;2022-07-29T05:44:19;6.50;;;3.40;;
5040;SDS011;2539;52.568;13.364;2022-07-29T05:46:45;5.97;;;3.37;;
5040;SDS011;2539;52.568;13.364;2022-07-29T05:49:11;4.60;;;2.77;;
5040;SDS011;2539;52.568;13.364;2022-07-29T05:51:37;6.53;;;3.40;;
5040;SDS011;2539;52.568;13.364;2022-07-29T05:54:03;5.97;;;3.17;;
5040;SDS011;2539;52.568;13.364;2022-07-29T05:56:29;6.67;;;2.90;;
5040;SDS011;2539;52.568;13.364;2022-07-29T05:58:56;6.93;;;3.00;;
5040;SDS011;2539;52.568;13.364;2022-07-29T06:01:22;3.73;;;2.80;;
5040;SDS011;2539;52.568;13.364;2022-07-29T06:03:48;4.10;;;2.80;;
5040;SDS011;2539;52.568;13.364;2022-07-29T06:06:14;4.60;;;2.88;;
5040;SDS011;2539;52.568;13.364;2022-07-29T06:08:41;3.73;;;3.10;;
5040;SDS011;2539;52.568;13.364;2022-07-29T06:11:07;4.07;;;2.42;;
5040;SDS011;2539;52.568;13.364;2022-07-29T06:13:34;10.17;;;2.87;;
5040;SDS011;2539;52.568;13.364;2022-07-29T06:16:00;12.60;;;3.00;;
5040;SDS011;2539;52.568;13.364;2022-07-29T06:18:26;4.07;;;2.50;;
5040;SDS011;2539;52.568;13.364;2022-07-29T06:20:53;6.10;;;2.87;;
5040;SDS011;2539;52.568;13.364;2022-07-29T06:23:19;4.40;;;2.40;;
5040;SDS011;2539;52.568;13.364;2022-07-29T06:25:46;7.10;;;2.97;;
5040;SDS011;2539;52.568;13.364;2022-07-29T06:28:12;6.20;;;3.37;;
5040;SDS011;2539;52.568;13.364;2022-07-29T06:30:39;7.43;;;3.17;;
5040;SDS011;2539;52.568;13.364;2022-07-29T06:33:05;5.97;;;2.77;;
5040;SDS011;2539;52.568;13.364;2022-07-29T06:35:34;4.80;;;2.50;;
5040;SDS011;2539;52.568;13.364;2022-07-29T06:38:02;5.73;;;3.20;;
5040;SDS011;2539;52.568;13.364;2022-07-29T06:40:28;9.80;;;3.40;;
5040;SDS011;2539;52.568;13.364;2022-07-29T06:43:13;5.63;;;3.13;;
5040;SDS011;2539;52.568;13.364;2022-07-29T06:45:39;6.10;;;3.00;;
5040;SDS011;2539;52.568;13.364;2022-07-29T06:48:06;6.50;;;3.00;;
5040;SDS011;2539;52.568;13.364;2022-07-29T06:50:32;13.40;;;3.43;;
5040;SDS011;2539;52.568;13.364;2022-07-29T06:52:57;5.40;;;3.20;;
5040;SDS011;2539;52.568;13.364;2022-07-29T06:55:23;5.80;;;2.67;;
5040;SDS011;2539;52.568;13.364;2022-07-29T06:57:50;7.57;;;3.20;;
5040;SDS011;2539;52.568;13.364;2022-07-29T07:00:16;5.70;;;2.70;;
5040;SDS011;2539;52.568;13.364;2022-07-29T07:02:43;19.90;;;3.07;;
5040;SDS011;2539;52.568;13.364;2022-07-29T07:05:09;7.03;;;2.87;;
5040;SDS011;2539;52.568;13.364;2022-07-29T07:07:36;6.27;;;3.20;;
5040;SDS011;2539;52.568;13.364;2022-07-29T07:10:02;4.67;;;3.07;;
5040;SDS011;2539;52.568;13.364;2022-07-29T07:12:28;10.80;;;3.40;;
5040;SDS011;2539;52.568;13.364;2022-07-29T07:14:55;6.67;;;2.70;;
5040;SDS011;2539;52.568;13.364;2022-07-29T07:17:21;5.17;;;2.80;;
5040;SDS011;2539;52.568;13.364;2022-07-29T07:19:47;10.47;;;3.33;;
5040;SDS011;2539;52.568;13.364;2022-07-29T07:22:13;6.10;;;3.00;;
5040;SDS011;2539;52.568;13.364;2022-07-29T07:24:39;11.73;;;2.23;;
5040;SDS011;2539;52.568;13.364;2022-07-29T07:27:05;5.50;;;2.80;;
5040;SDS011;2539;52.568;13.364;2022-07-29T07:29:32;6.50;;;3.00;;
5040;SDS011;2539;52.568;13.364;2022-07-29T07:31:58;13.43;;;2.97;;
5040;SDS011;2539;52.568;13.364;2022-07-29T07:34:24;6.30;;;2.80;;
5040;SDS011;2539;52.568;13.364;2022-07-29T07:36:51;5.20;;;3.20;;
5040;SDS011;2539;52.568;13.364;2022-07-29T07:39:17;7.00;;;3.00;;
5040;SDS011;2539;52.568;13.364;2022-07-29T07:41:43;9.10;;;2.90;;
5040;SDS011;2539;52.568;13.364;2022-07-29T07:44:09;10.13;;;2.80;;
5040;SDS011;2539;52.568;13.364;2022-07-29T07:46:35;6.60;;;2.83;;
5040;SDS011;2539;52.568;13.364;2022-07-29T07:49:01;6.53;;;2.50;;
5040;SDS011;2539;52.568;13.364;2022-07-29T07:51:27;4.00;;;2.70;;
5040;SDS011;2539;52.568;13.364;2022-07-29T07:53:54;4.73;;;3.07;;
5040;SDS011;2539;52.568;13.364;2022-07-29T07:56:20;4.23;;;2.20;;
5040;SDS011;2539;52.568;13.364;2022-07-29T07:58:46;6.17;;;2.60;;
5040;SDS011;2539;52.568;13.364;2022-07-29T08:01:12;8.37;;;2.60;;
5040;SDS011;2539;52.568;13.364;2022-07-29T08:03:39;6.57;;;2.63;;
5040;SDS011;2539;52.568;13.364;2022-07-29T08:06:05;4.53;;;2.20;;
5040;SDS011;2539;52.568;13.364;2022-07-29T08:08:32;3.93;;;2.33;;
5040;SDS011;2539;52.568;13.364;2022-07-29T08:10:58;4.70;;;2.37;;
5040;SDS011;2539;52.568;13.364;2022-07-29T08:13:25;6.10;;;2.37;;
5040;SDS011;2539;52.568;13.364;2022-07-29T08:15:55;5.80;;;2.17;;
5040;SDS011;2539;52.568;13.364;2022-07-29T08:18:37;4.63;;;2.50;;
5040;SDS011;2539;52.568;13.364;2022-07-29T08:21:05;6.73;;;2.00;;
5040;SDS011;2539;52.568;13.364;2022-07-29T08:23:31;5.03;;;2.17;;
5040;SDS011;2539;52.568;13.364;2022-07-29T08:26:13;6.13;;;2.43;;
5040;SDS011;2539;52.568;13.364;2022-07-29T08:28:40;6.17;;;1.87;;
5040;SDS011;2539;52.568;13.364;2022-07-29T08:31:10;9.05;;;2.35;;
5040;SDS011;2539;52.568;13.364;2022-07-29T08:33:37;4.67;;;2.00;;
5040;SDS011;2539;52.568;13.364;2022-07-29T08:36:03;12.90;;;2.30;;
5040;SDS011;2539;52.568;13.364;2022-07-29T08:38:30;4.23;;;1.93;;
5040;SDS011;2539;52.568;13.364;2022-07-29T08:40:56;5.47;;;2.10;;
5040;SDS011;2539;52.568;13.364;2022-07-29T08:43:23;6.10;;;2.00;;
5040;SDS011;2539;52.568;13.364;2022-07-29T08:45:50;8.13;;;1.93;;
5040;SDS011;2539;52.568;13.364;2022-07-29T08:48:18;11.10;;;2.67;;
5040;SDS011;2539;52.568;13.364;2022-07-29T08:50:46;4.10;;;1.80;;
5040;SDS011;2539;52.568;13.364;2022-07-29T08:53:15;7.00;;;2.50;;
5040;SDS011;2539;52.568;13.364;2022-07-29T08:55:42;4.93;;;2.20;;
5040;SDS011;2539;52.568;13.364;2022-07-29T08:58:09;11.93;;;2.60;;
5040;SDS011;2539;52.568;13.364;2022-07-29T09:00:36;6.23;;;2.47;;
5040;SDS011;2539;52.568;13.364;2022-07-29T09:03:05;5.20;;;2.53;;
5040;SDS011;2539;52.568;13.364;2022-07-29T09:05:33;11.05;;;2.20;;
5040;SDS011;2539;52.568;13.364;2022-07-29T09:08:01;3.77;;;1.87;;
5040;SDS011;2539;52.568;13.364;2022-07-29T09:10:27;6.07;;;2.30;;
5040;SDS011;2539;52.568;13.364;2022-07-29T09:12:54;3.60;;;1.70;;
5040;SDS011;2539;52.568;13.364;2022-07-29T09:15:21;6.80;;;2.20;;
5040;SDS011;2539;52.568;13.364;2022-07-29T09:17:48;3.80;;;1.80;;
5040;SDS011;2539;52.568;13.364;2022-07-29T09:20:16;6.53;;;2.70;;
5040;SDS011;2539;52.568;13.364;2022-07-29T09:22:44;5.30;;;2.47;;
5040;SDS011;2539;52.568;13.364;2022-07-29T09:25:15;4.33;;;2.30;;
5040;SDS011;2539;52.568;13.364;2022-07-29T09:28:11;7.80;;;2.30;;
5040;SDS011;2539;52.568;13.364;2022-07-29T09:30:54;4.55;;;2.15;;
5040;SDS011;2539;52.568;13.364;2022-07-29T09:33:25;7.20;;;1.93;;
5040;SDS011;2539;52.568;13.364;2022-07-29T09:36:02;7.17;;;2.43;;
5040;SDS011;2539;52.568;13.364;2022-07-29T09:38:30;5.80;;;2.30;;
5040;SDS011;2539;52.568;13.364;2022-07-29T09:40:57;5.30;;;2.30;;
5040;SDS011;2539;52.568;13.364;2022-07-29T09:43:25;4.20;;;1.80;;
5040;SDS011;2539;52.568;13.364;2022-07-29T09:45:51;2.67;;;2.03;;
5040;SDS011;2539;52.568;13.364;2022-07-29T09:48:23;5.77;;;2.03;;
5040;SDS011;2539;52.568;13.364;2022-07-29T09:50:50;7.90;;;1.80;;
5040;SDS011;2539;52.568;13.364;2022-07-29T09:56:05;6.37;;;1.93;;
5040;SDS011;2539;52.568;13.364;2022-07-29T09:58:32;7.40;;;1.83;;
5040;SDS011;2539;52.568;13.364;2022-07-29T10:01:01;6.50;;;2.10;;
5040;SDS011;2539;52.568;13.364;2022-07-29T10:03:28;4.97;;;2.00;;
5040;SDS011;2539;52.568;13.364;2022-07-29T10:06:04;3.50;;;1.77;;
5040;SDS011;2539;52.568;13.364;2022-07-29T10:08:31;9.67;;;2.20;;
5040;SDS011;2539;52.568;13.364;2022-07-29T10:11:14;4.30;;;2.10;;
5040;SDS011;2539;52.568;13.364;2022-07-29T10:13:43;8.13;;;2.07;;
5040;SDS011;2539;52.568;13.364;2022-07-29T10:16:10;5.03;;;1.90;;
5040;SDS011;2539;52.568;13.364;2022-07-29T10:18:38;6.77;;;2.07;;
5040;SDS011;2539;52.568;13.364;2022-07-29T10:21:05;5.22;;;2.20;;
5040;SDS011;2539;52.568;13.364;2022-07-29T10:23:32;5.00;;;2.00;;
5040;SDS011;2539;52.568;13.364;2022-07-29T10:25:59;6.03;;;2.03;;
5040;SDS011;2539;52.568;13.364;2022-07-29T10:28:26;5.15;;;2.03;;
5040;SDS011;2539;52.568;13.364;2022-07-29T10:30:52;8.82;;;2.10;;
5040;SDS011;2539;52.568;13.364;2022-07-29T10:33:30;6.13;;;2.10;;
5040;SDS011;2539;52.568;13.364;2022-07-29T10:44:39;9.25;;;1.88;;
5040;SDS011;2539;52.568;13.364;2022-07-29T10:47:07;6.75;;;1.90;;
5040;SDS011;2539;52.568;13.364;2022-07-29T10:49:33;8.18;;;1.80;;
5040;SDS011;2539;52.568;13.364;2022-07-29T10:52:04;14.18;;;1.92;;
5040;SDS011;2539;52.568;13.364;2022-07-29T11:00:37;5.05;;;1.77;;
5040;SDS011;2539;52.568;13.364;2022-07-29T11:05:12;3.75;;;1.83;;
5040;SDS011;2539;52.568;13.364;2022-07-29T11:10:38;5.53;;;2.20;;
5040;SDS011;2539;52.568;13.364;2022-07-29T11:13:06;7.38;;;1.60;;
5040;SDS011;2539;52.568;13.364;2022-07-29T11:15:51;3.25;;;1.60;;
5040;SDS011;2539;52.568;13.364;2022-07-29T11:18:21;3.55;;;1.67;;
5040;SDS011;2539;52.568;13.364;2022-07-29T11:20:48;3.45;;;1.55;;
5040;SDS011;2539;52.568;13.364;2022-07-29T11:23:25;2.83;;;1.50;;
5040;SDS011;2539;52.568;13.364;2022-07-29T11:31:35;2.53;;;1.65;;
5040;SDS011;2539;52.568;13.364;2022-07-29T11:34:31;7.15;;;2.45;;
5040;SDS011;2539;52.568;13.364;2022-07-29T11:39:37;4.05;;;1.70;;
5040;SDS011;2539;52.568;13.364;2022-07-29T11:44:56;2.85;;;1.55;;
5040;SDS011;2539;52.568;13.364;2022-07-29T11:47:28;7.90;;;3.08;;
5040;SDS011;2539;52.568;13.364;2022-07-29T11:49:58;3.53;;;2.03;;
5040;SDS011;2539;52.568;13.364;2022-07-29T11:55:15;5.70;;;2.00;;
5040;SDS011;2539;52.568;13.364;2022-07-29T11:57:52;2.95;;;1.90;;
5040;SDS011;2539;52.568;13.364;2022-07-29T12:00:21;12.67;;;2.17;;
5040;SDS011;2539;52.568;13.364;2022-07-29T12:02:48;4.70;;;2.08;;
5040;SDS011;2539;52.568;13.364;2022-07-29T12:05:15;5.22;;;2.30;;
5040;SDS011;2539;52.568;13.364;2022-07-29T12:07:41;3.33;;;2.20;;
5040;SDS011;2539;52.568;13.364;2022-07-29T12:10:08;7.93;;;2.35;;
5040;SDS011;2539;52.568;13.364;2022-07-29T12:12:35;8.50;;;2.42;;
5040;SDS011;2539;52.568;13.364;2022-07-29T12:15:14;10.90;;;3.47;;
5040;SDS011;2539;52.568;13.364;2022-07-29T12:17:43;5.50;;;2.35;;
5040;SDS011;2539;52.568;13.364;2022-07-29T12:20:10;6.43;;;1.80;;
5040;SDS011;2539;52.568;13.364;2022-07-29T12:22:39;3.00;;;1.92;;
5040;SDS011;2539;52.568;13.364;2022-07-29T12:25:12;5.03;;;2.30;;
5040;SDS011;2539;52.568;13.364;2022-07-29T12:27:44;3.30;;;2.40;;
5040;SDS011;2539;52.568;13.364;2022-07-29T12:30:10;6.95;;;2.55;;
5040;SDS011;2539;52.568;13.364;2022-07-29T12:32:40;4.50;;;2.33;;
5040;SDS011;2539;52.568;13.364;2022-07-29T12:35:09;4.72;;;2.30;;
5040;SDS011;2539;52.568;13.364;2022-07-29T12:37:39;4.78;;;2.58;;
5040;SDS011;2539;52.568;13.364;2022-07-29T12:40:07;6.35;;;2.30;;
5040;SDS011;2539;52.568;13.364;2022-07-29T12:42:35;3.78;;;2.17;;
5040;SDS011;2539;52.568;13.364;2022-07-29T12:45:03;4.25;;;2.55;;
5040;SDS011;2539;52.568;13.364;2022-07-29T12:47:30;9.95;;;2.35;;
5040;SDS011;2539;52.568;13.364;2022-07-29T12:50:13;6.20;;;2.97;;
5040;SDS011;2539;52.568;13.364;2022-07-29T12:52:43;6.45;;;2.58;;
5040;SDS011;2539;52.568;13.364;2022-07-29T12:55:10;5.60;;;2.65;;
5040;SDS011;2539;52.568;13.364;2022-07-29T12:57:47;5.72;;;2.35;;
5040;SDS011;2539;52.568;13.364;2022-07-29T13:00:21;3.72;;;2.15;;
5040;SDS011;2539;52.568;13.364;2022-07-29T13:02:55;6.13;;;2.63;;
5040;SDS011;2539;52.568;13.364;2022-07-29T13:05:43;10.55;;;3.00;;
5040;SDS011;2539;52.568;13.364;2022-07-29T13:08:11;6.38;;;2.70;;
5040;SDS011;2539;52.568;13.364;2022-07-29T13:10:39;3.92;;;2.85;;
5040;SDS011;2539;52.568;13.364;2022-07-29T13:13:09;9.38;;;2.60;;
5040;SDS011;2539;52.568;13.364;2022-07-29T13:15:40;7.63;;;2.60;;
5040;SDS011;2539;52.568;13.364;2022-07-29T13:20:54;7.30;;;2.78;;
5040;SDS011;2539;52.568;13.364;2022-07-29T13:23:21;5.35;;;2.80;;
5040;SDS011;2539;52.568;13.364;2022-07-29T13:25:47;9.05;;;3.17;;
5040;SDS011;2539;52.568;13.364;2022-07-29T13:28:14;5.78;;;2.72;;
5040;SDS011;2539;52.568;13.364;2022-07-29T13:30:40;7.32;;;2.78;;
5040;SDS011;2539;52.568;13.364;2022-07-29T13:33:09;6.43;;;2.88;;
5040;SDS011;2539;52.568;13.364;2022-07-29T13:35:35;3.72;;;2.65;;
5040;SDS011;2539;52.568;13.364;2022-07-29T13:38:01;7.35;;;3.08;;
5040;SDS011;2539;52.568;13.364;2022-07-29T13:40:28;4.72;;;2.75;;
5040;SDS011;2539;52.568;13.364;2022-07-29T13:42:55;5.00;;;2.70;;
5040;SDS011;2539;52.568;13.364;2022-07-29T13:45:22;19.50;;;4.00;;
5040;SDS011;2539;52.568;13.364;2022-07-29T13:47:48;6.72;;;3.50;;
5040;SDS011;2539;52.568;13.364;2022-07-29T13:50:14;5.63;;;2.60;;
5040;SDS011;2539;52.568;13.364;2022-07-29T13:52:40;7.55;;;2.70;;
5040;SDS011;2539;52.568;13.364;2022-07-29T13:55:07;4.20;;;2.95;;
5040;SDS011;2539;52.568;13.364;2022-07-29T13:57:33;5.95;;;2.45;;
5040;SDS011;2539;52.568;13.364;2022-07-29T14:00:00;6.43;;;2.60;;
5040;SDS011;2539;52.568;13.364;2022-07-29T14:02:26;3.47;;;2.20;;
5040;SDS011;2539;52.568;13.364;2022-07-29T14:04:53;3.70;;;2.60;;
5040;SDS011;2539;52.568;13.364;2022-07-29T14:07:19;5.25;;;2.70;;
5040;SDS011;2539;52.568;13.364;2022-07-29T14:09:45;7.07;;;3.47;;
5040;SDS011;2539;52.568;13.364;2022-07-29T14:12:12;15.35;;;3.35;;
5040;SDS011;2539;52.568;13.364;2022-07-29T14:14:38;4.47;;;2.75;;
5040;SDS011;2539;52.568;13.364;2022-07-29T14:17:04;7.43;;;3.10;;
5040;SDS011;2539;52.568;13.364;2022-07-29T14:19:31;6.32;;;3.30;;
5040;SDS011;2539;52.568;13.364;2022-07-29T14:22:02;4.85;;;3.15;;
5040;SDS011;2539;52.568;13.364;2022-07-29T14:24:29;4.32;;;2.65;;
5040;SDS011;2539;52.568;13.364;2022-07-29T14:26:56;4.63;;;2.80;;
5040;SDS011;2539;52.568;13.364;2022-07-29T14:29:22;5.50;;;3.08;;
5040;SDS011;2539;52.568;13.364;2022-07-29T14:31:48;3.97;;;2.70;;
5040;SDS011;2539;52.568;13.364;2022-07-29T14:34:14;7.95;;;2.60;;
5040;SDS011;2539;52.568;13.364;2022-07-29T14:36:41;5.20;;;3.30;;
5040;SDS011;2539;52.568;13.364;2022-07-29T14:39:07;4.97;;;2.60;;
5040;SDS011;2539;52.568;13.364;2022-07-29T14:41:36;3.35;;;2.38;;
5040;SDS011;2539;52.568;13.364;2022-07-29T14:44:03;7.20;;;2.42;;
5040;SDS011;2539;52.568;13.364;2022-07-29T14:46:30;4.45;;;2.67;;
5040;SDS011;2539;52.568;13.364;2022-07-29T14:48:56;6.55;;;2.63;;
5040;SDS011;2539;52.568;13.364;2022-07-29T14:51:22;6.53;;;2.65;;
5040;SDS011;2539;52.568;13.364;2022-07-29T14:53:48;7.28;;;2.85;;
5040;SDS011;2539;52.568;13.364;2022-07-29T14:56:15;5.10;;;2.50;;
5040;SDS011;2539;52.568;13.364;2022-07-29T14:58:41;7.07;;;2.63;;
5040;SDS011;2539;52.568;13.364;2022-07-29T15:01:07;5.13;;;2.47;;
5040;SDS011;2539;52.568;13.364;2022-07-29T15:03:34;6.03;;;2.00;;
5040;SDS011;2539;52.568;13.364;2022-07-29T15:06:00;5.70;;;2.33;;
5040;SDS011;2539;52.568;13.364;2022-07-29T15:08:26;4.50;;;2.70;;
5040;SDS011;2539;52.568;13.364;2022-07-29T15:10:55;8.27;;;2.60;;
5040;SDS011;2539;52.568;13.364;2022-07-29T15:13:23;4.15;;;2.70;;
5040;SDS011;2539;52.568;13.364;2022-07-29T15:15:49;5.53;;;2.80;;
5040;SDS011;2539;52.568;13.364;2022-07-29T15:18:15;11.52;;;2.92;;
5040;SDS011;2539;52.568;13.364;2022-07-29T15:20:42;3.90;;;2.53;;
5040;SDS011;2539;52.568;13.364;2022-07-29T15:23:10;5.75;;;2.65;;
5040;SDS011;2539;52.568;13.364;2022-07-29T15:25:38;3.95;;;2.72;;
5040;SDS011;2539;52.568;13.364;2022-07-29T15:28:05;4.60;;;2.30;;
5040;SDS011;2539;52.568;13.364;2022-07-29T15:30:33;3.97;;;2.38;;
5040;SDS011;2539;52.568;13.364;2022-07-29T15:33:02;3.70;;;2.70;;
5040;SDS011;2539;52.568;13.364;2022-07-29T15:35:29;11.43;;;3.10;;
5040;SDS011;2539;52.568;13.364;2022-07-29T15:37:55;7.38;;;2.80;;
5040;SDS011;2539;52.568;13.364;2022-07-29T15:40:22;7.15;;;2.53;;
5040;SDS011;2539;52.568;13.364;2022-07-29T15:42:48;6.57;;;2.40;;
5040;SDS011;2539;52.568;13.364;2022-07-29T15:45:14;7.65;;;2.58;;
5040;SDS011;2539;52.568;13.364;2022-07-29T15:47:40;4.28;;;3.05;;
5040;SDS011;2539;52.568;13.364;2022-07-29T15:50:06;4.63;;;2.42;;
5040;SDS011;2539;52.568;13.364;2022-07-29T15:52:38;9.98;;;2.67;;
5040;SDS011;2539;52.568;13.364;2022-07-29T15:55:05;2.95;;;2.10;;
5040;SDS011;2539;52.568;13.364;2022-07-29T15:57:31;7.88;;;2.40;;